National Weather Service Raw Text Product

Displaying AFOS PIL: TAFOTM Received: 2018-01-03 05:37 UTC


436 
FTUS43 KDMX 030537 AAB
TAFOTM
TAF AMD
KOTM 030537Z 0306/0406 24013KT P6SM -SN FEW025 SCT035 BKN050
     FM030800 29012G18KT P6SM SCT040 BKN050
     FM031100 32015G22KT P6SM SCT045 BKN120
     FM031400 32015G23KT P6SM SCT200
     FM040000 32010KT P6SM FEW250=